Centerville, Massachusetts
Current Conditions -  °F | °C
As of 6:56 PM on Friday 19 Dec 2014 (Local Time) from KHYA Reporting Station
Overcast Overcast  
Wind Chill: 29°   Ceiling: 3100
Heat Index: 34°   Visibility: 10mi
Dew Point: 22°   Wind: 6mph
Humidity: 61%   Direction: 270°W
Pressure: 30.03"   Gusts: NA
Location:  41.65°N, 70.35°W
Report Text: KHYA 192356Z 27005KT 10SM OVC031 01/M06 A3003 RMK AO2 SLP171 T00111056 10028 20011 51021
Loading
Personal Weather Stations






























Interactive Weather Map New forecast layout! Learn more

10-Day Weather Forecast

Advertisements
Track Severe Weather on mobile